Albatross — SMQU — position and weather

sailwx.info

Track history (hours):
 
Tides and Currents Weather Stations Pressure Air Temp Water Temp Dewpoint Dewpoint Depression Visibility Wind Speed Wind Dir Waves Ship Positions

Albatross

Last reported at 2018-Jul-20 09:00 UTC. Time now 2018-Jul-20 15:55 UTC.
Position N 39°31' E 002°32'.

Length 15 m.

Type: Pleasure craft. MMSI: 265708820.

Date/timePositionNaut miles runAvg speedWind from/ knotsBaromVisibWave heightAir tempDewpointWater temp
2018-Jul-20 09:00N 39°31' E 002°32'1 2.5
2018-Jul-20 08:30N 39°31' E 002°34'  
2018-Jul-17 12:05N 39°34' E 002°38'0 0.0
2018-Jul-17 11:59N 39°34' E 002°38'2 3.3
2018-Jul-17 11:30N 39°32' E 002°38'  
2018-Jul-12 09:51N 39°27' E 002°31'1 3.3
2018-Jul-12 09:28N 39°28' E 002°32'7 0.3
2018-Jul-11 09:18N 39°34' E 002°38'0 0.0
2018-Jul-11 09:00N 39°34' E 002°38'1 2.0
2018-Jul-11 08:30N 39°33' E 002°38'2 0.1
2018-Jul-10 15:16N 39°32' E 002°36'0 0.0
2018-Jul-10 15:00N 39°32' E 002°36'2 3.4
2018-Jul-10 14:30N 39°31' E 002°36'3 6.2
2018-Jul-10 14:00N 39°28' E 002°39'3 5.8
2018-Jul-10 13:30N 39°26' E 002°42'3 5.7
2018-Jul-10 12:54N 39°24' E 002°45'  
Track history (hours):
 
Tides and Currents Weather Stations Pressure Air Temp Water Temp Dewpoint Dewpoint Depression Visibility Wind Speed Wind Dir Waves Ship Positions

Albatross

Last reported at 2018-Jul-20 09:00 UTC. Time now 2018-Jul-20 15:55 UTC.
Position N 39°31' E 002°32'.

Length 15 m.

Type: Pleasure craft. MMSI: 265708820.

Date/timePositionNaut miles runAvg speedWind from/ knotsBaromVisibWave heightAir tempDewpointWater temp
2018-Jul-20 09:00N 39°31' E 002°32'1 2.5
2018-Jul-20 08:30N 39°31' E 002°34'  
2018-Jul-17 12:05N 39°34' E 002°38'0 0.0
2018-Jul-17 11:59N 39°34' E 002°38'2 3.3
2018-Jul-17 11:30N 39°32' E 002°38'  
2018-Jul-12 09:51N 39°27' E 002°31'1 3.3
2018-Jul-12 09:28N 39°28' E 002°32'7 0.3
2018-Jul-11 09:18N 39°34' E 002°38'0 0.0
2018-Jul-11 09:00N 39°34' E 002°38'1 2.0
2018-Jul-11 08:30N 39°33' E 002°38'2 0.1
2018-Jul-10 15:16N 39°32' E 002°36'0 0.0
2018-Jul-10 15:00N 39°32' E 002°36'2 3.4
2018-Jul-10 14:30N 39°31' E 002°36'3 6.2
2018-Jul-10 14:00N 39°28' E 002°39'3 5.8
2018-Jul-10 13:30N 39°26' E 002°42'3 5.7
2018-Jul-10 12:54N 39°24' E 002°45'  

Dump ship's entire track history